createdAt,value
2023-01-01T00:00:48.704Z,6.63
2023-01-01T00:03:16.035Z,6.61
2023-01-01T00:05:43.322Z,6.66
2023-01-01T00:08:10.613Z,6.71
2023-01-01T00:10:38.083Z,6.69
2023-01-01T00:13:05.242Z,6.64
2023-01-01T00:15:33.241Z,6.66
2023-01-01T00:18:00.499Z,6.66
2023-01-01T00:20:34.672Z,6.66
2023-01-01T00:23:03.186Z,6.65
2023-01-01T00:25:32.359Z,6.65
2023-01-01T00:27:59.683Z,6.65
2023-01-01T00:30:27.079Z,6.67
2023-01-01T00:32:55.906Z,6.67
2023-01-01T00:35:27.223Z,6.69
2023-01-01T00:37:55.340Z,6.64
2023-01-01T00:40:22.965Z,6.64
2023-01-01T00:42:50.259Z,6.67
2023-01-01T00:45:21.840Z,6.66
2023-01-01T00:47:52.727Z,6.68
2023-01-01T00:50:22.483Z,6.72
2023-01-01T00:52:50.518Z,6.67
2023-01-01T00:55:18.119Z,6.68
2023-01-01T00:57:45.517Z,6.74
2023-01-01T01:00:15.230Z,6.74
2023-01-01T01:02:42.544Z,6.73
2023-01-01T01:05:10.144Z,6.74
2023-01-01T01:07:39.112Z,6.75
2023-01-01T01:10:08.287Z,6.77
2023-01-01T01:12:36.331Z,6.78
2023-01-01T01:15:05.572Z,6.79
2023-01-01T01:17:33.051Z,6.80
2023-01-01T01:20:00.305Z,6.83
2023-01-01T01:22:28.904Z,6.83
2023-01-01T01:24:57.709Z,6.83
2023-01-01T01:27:25.108Z,6.81
2023-01-01T01:29:53.826Z,6.84
2023-01-01T01:32:21.320Z,6.82
2023-01-01T01:34:48.891Z,6.80
2023-01-01T01:37:16.139Z,6.80
2023-01-01T01:39:43.531Z,6.81
2023-01-01T01:42:19.749Z,6.80
2023-01-01T01:44:49.940Z,6.80
2023-01-01T01:47:50.683Z,6.83
2023-01-01T01:50:35.576Z,6.83
2023-01-01T01:53:38.942Z,6.83
2023-01-01T01:56:16.557Z,6.79
2023-01-01T01:58:43.992Z,6.81
2023-01-01T02:01:11.493Z,6.81
2023-01-01T02:03:57.308Z,6.82
2023-01-01T02:06:30.982Z,6.85
2023-01-01T02:09:02.567Z,6.82
2023-01-01T02:11:29.882Z,6.83
2023-01-01T02:13:58.020Z,6.84
2023-01-01T02:16:55.890Z,6.85
2023-01-01T02:20:00.796Z,6.86
2023-01-01T02:22:36.894Z,6.88
2023-01-01T02:25:31.911Z,6.88
2023-01-01T02:28:30.748Z,6.89
2023-01-01T02:31:01.057Z,6.87
2023-01-01T02:33:29.826Z,6.87
2023-01-01T02:36:02.818Z,6.88
2023-01-01T02:38:43.189Z,6.91
2023-01-01T02:41:20.285Z,6.89
2023-01-01T02:43:47.992Z,6.90
2023-01-01T02:48:47.227Z,6.88
2023-01-01T02:51:14.383Z,6.91
2023-01-01T02:54:05.590Z,6.94
2023-01-01T02:56:49.200Z,6.95
2023-01-01T03:00:06.238Z,6.95
2023-01-01T03:02:53.431Z,6.93
2023-01-01T03:06:26.492Z,6.95
2023-01-01T03:09:20.723Z,6.95
2023-01-01T03:12:25.341Z,6.97
2023-01-01T03:15:07.442Z,6.99
2023-01-01T03:17:42.472Z,6.97
2023-01-01T03:20:24.583Z,6.94
2023-01-01T03:22:55.978Z,6.94
2023-01-01T03:25:33.940Z,6.93
2023-01-01T03:28:13.639Z,6.93
2023-01-01T03:30:43.104Z,6.94
2023-01-01T03:33:23.902Z,6.97
2023-01-01T03:36:25.649Z,6.91
2023-01-01T03:38:58.388Z,6.86
2023-01-01T03:41:42.608Z,6.83
2023-01-01T03:44:29.531Z,6.80
2023-01-01T03:46:57.114Z,6.72
2023-01-01T03:49:24.933Z,6.73
2023-01-01T03:52:19.502Z,6.72
2023-01-01T03:55:27.106Z,6.68
2023-01-01T03:58:23.546Z,6.70
2023-01-01T04:01:01.691Z,6.70
2023-01-01T04:03:31.387Z,6.69
2023-01-01T04:05:58.699Z,6.68
2023-01-01T04:08:26.078Z,6.68
2023-01-01T04:10:59.605Z,6.70
2023-01-01T04:13:26.920Z,6.73
2023-01-01T04:15:54.167Z,6.73
2023-01-01T04:18:21.359Z,6.73
2023-01-01T04:20:48.514Z,6.75
2023-01-01T04:23:15.713Z,6.75
2023-01-01T04:25:42.902Z,6.72
2023-01-01T04:28:10.050Z,6.71
2023-01-01T04:33:03.547Z,6.67
2023-01-01T04:35:30.683Z,6.68
2023-01-01T04:37:58.993Z,6.68
2023-01-01T04:40:26.263Z,6.69
2023-01-01T04:42:54.595Z,6.68
2023-01-01T04:45:21.789Z,6.66
2023-01-01T04:47:49.045Z,6.65
2023-01-01T04:50:16.384Z,6.66
2023-01-01T04:52:43.542Z,6.66
2023-01-01T04:55:10.822Z,6.65
2023-01-01T04:57:38.092Z,6.65
2023-01-01T05:00:06.534Z,6.64
2023-01-01T05:02:33.909Z,6.66
2023-01-01T05:05:01.081Z,6.65
2023-01-01T05:07:28.407Z,6.66
2023-01-01T05:09:55.620Z,6.67
2023-01-01T05:12:22.768Z,6.68
2023-01-01T05:14:50.004Z,6.71
2023-01-01T05:17:17.153Z,6.73
2023-01-01T05:19:44.621Z,6.71
2023-01-01T05:22:11.934Z,6.73
2023-01-01T05:24:39.133Z,6.76
2023-01-01T05:27:06.350Z,6.75
2023-01-01T05:29:33.539Z,6.74
2023-01-01T05:32:00.850Z,6.74
2023-01-01T05:36:56.260Z,6.72
2023-01-01T05:39:23.634Z,6.76
2023-01-01T05:41:51.814Z,6.76
2023-01-01T05:44:19.554Z,6.79
2023-01-01T05:46:46.805Z,6.78
2023-01-01T05:49:14.297Z,6.79
2023-01-01T05:56:37.152Z,6.83
2023-01-01T05:59:04.604Z,6.83
2023-01-01T06:01:32.680Z,6.81
2023-01-01T06:04:00.804Z,6.84
2023-01-01T06:06:33.176Z,6.84
2023-01-01T06:09:05.333Z,6.85
2023-01-01T06:11:33.214Z,6.86
2023-01-01T06:14:01.541Z,6.84
2023-01-01T06:16:31.223Z,6.84
2023-01-01T06:18:59.355Z,6.84
2023-01-01T06:21:29.220Z,6.83
2023-01-01T06:23:58.727Z,6.81
2023-01-01T06:26:31.568Z,6.80
2023-01-01T06:29:00.735Z,6.79
2023-01-01T06:31:32.903Z,6.78
2023-01-01T06:34:02.775Z,6.74
2023-01-01T06:36:29.980Z,6.75
2023-01-01T06:38:58.729Z,6.71
2023-01-01T06:41:28.637Z,6.70
2023-01-01T06:43:58.313Z,6.67
2023-01-01T06:46:36.631Z,6.70
2023-01-01T06:49:11.926Z,6.68
2023-01-01T06:51:44.116Z,6.64
2023-01-01T06:54:11.793Z,6.66
2023-01-01T06:56:39.944Z,6.67
2023-01-01T06:59:07.439Z,6.66
2023-01-01T07:01:37.612Z,6.65
2023-01-01T07:04:11.352Z,6.67
2023-01-01T07:06:39.435Z,6.68
2023-01-01T07:09:08.673Z,6.69
2023-01-01T07:11:36.446Z,6.68
2023-01-01T07:14:04.195Z,6.70
2023-01-01T07:16:31.763Z,6.71
2023-01-01T07:18:59.132Z,6.71
2023-01-01T07:21:45.275Z,6.69
2023-01-01T07:24:14.870Z,6.71
2023-01-01T07:26:42.297Z,6.71
2023-01-01T07:29:09.739Z,6.69
2023-01-01T07:31:40.613Z,6.70
2023-01-01T07:34:14.630Z,6.71
2023-01-01T07:36:42.960Z,6.68
2023-01-01T07:39:11.271Z,6.69
2023-01-01T07:41:38.749Z,6.70
2023-01-01T07:44:06.372Z,6.71
2023-01-01T07:46:37.458Z,6.74
2023-01-01T07:49:04.734Z,6.77
2023-01-01T07:51:31.979Z,6.76
2023-01-01T07:54:05.675Z,6.77
2023-01-01T07:56:36.033Z,6.80
2023-01-01T07:59:04.004Z,6.80
2023-01-01T08:01:31.262Z,6.81
2023-01-01T08:03:58.545Z,6.81
2023-01-01T08:06:25.731Z,6.81
2023-01-01T08:08:52.972Z,6.80
2023-01-01T08:11:20.303Z,6.76
2023-01-01T08:13:47.619Z,6.80
2023-01-01T08:16:14.869Z,6.79
2023-01-01T08:18:42.075Z,6.83
2023-01-01T08:21:09.368Z,6.82
2023-01-01T08:23:36.649Z,6.81
2023-01-01T08:26:04.329Z,6.86
2023-01-01T08:28:32.007Z,6.86
2023-01-01T08:31:00.203Z,6.86
2023-01-01T08:33:29.135Z,6.88
2023-01-01T08:35:56.409Z,6.89
2023-01-01T08:38:23.891Z,6.93
2023-01-01T08:40:51.108Z,6.98
2023-01-01T08:43:18.632Z,6.89
2023-01-01T08:45:46.199Z,6.91
2023-01-01T08:48:14.489Z,6.97
2023-01-01T08:50:41.811Z,7.03
2023-01-01T08:53:09.626Z,6.98
2023-01-01T08:55:36.811Z,6.93
2023-01-01T08:58:07.627Z,6.97
2023-01-01T09:00:35.917Z,7.05
2023-01-01T09:03:03.218Z,7.04
2023-01-01T09:05:30.575Z,7.05
2023-01-01T09:07:57.762Z,7.06
2023-01-01T09:10:25.011Z,7.05
2023-01-01T09:12:52.240Z,7.08
2023-01-01T09:15:19.530Z,7.17
2023-01-01T09:17:46.778Z,7.26
2023-01-01T09:20:14.127Z,7.27
2023-01-01T09:22:41.482Z,7.22
2023-01-01T09:25:08.948Z,7.33
2023-01-01T09:27:36.220Z,7.34
2023-01-01T09:30:04.284Z,7.26
2023-01-01T09:32:32.103Z,7.33
2023-01-01T09:35:01.031Z,7.31
2023-01-01T09:37:28.679Z,7.34
2023-01-01T09:39:55.917Z,7.36
2023-01-01T09:42:48.680Z,7.32
2023-01-01T09:45:30.748Z,7.34
2023-01-01T09:48:16.929Z,7.40
2023-01-01T09:50:46.493Z,7.40
2023-01-01T09:53:51.065Z,7.36
2023-01-01T09:56:28.028Z,7.43
2023-01-01T09:58:59.179Z,7.52
2023-01-01T10:02:08.937Z,7.52
2023-01-01T10:05:30.656Z,7.52
2023-01-01T10:08:42.944Z,7.48
2023-01-01T10:11:41.197Z,7.54
2023-01-01T10:14:33.164Z,7.55
2023-01-01T10:17:10.674Z,7.54
2023-01-01T10:19:46.015Z,7.57
2023-01-01T10:22:44.871Z,7.65
2023-01-01T10:25:28.332Z,7.57
2023-01-01T10:28:19.992Z,7.59
2023-01-01T10:30:47.203Z,7.62
2023-01-01T10:33:14.928Z,7.63
2023-01-01T10:35:49.688Z,7.63
2023-01-01T10:38:27.702Z,7.64
2023-01-01T10:41:07.720Z,7.70
2023-01-01T10:43:36.812Z,7.68
2023-01-01T10:46:06.030Z,7.66
2023-01-01T10:48:36.071Z,7.65
2023-01-01T10:51:07.580Z,7.68
2023-01-01T10:53:50.311Z,7.71
2023-01-01T10:56:22.480Z,7.79
2023-01-01T10:58:56.922Z,7.81
2023-01-01T11:01:27.665Z,7.80
2023-01-01T11:04:20.937Z,7.77
2023-01-01T11:06:48.608Z,7.84
2023-01-01T11:09:36.787Z,7.81
2023-01-01T11:12:45.922Z,7.78
2023-01-01T11:15:06.690Z,7.70
2023-01-01T11:17:37.015Z,7.71
2023-01-01T11:20:06.649Z,7.73
2023-01-01T11:22:42.425Z,7.74
2023-01-01T11:25:30.223Z,7.70
2023-01-01T11:28:21.851Z,7.59
2023-01-01T11:31:10.052Z,7.57
2023-01-01T11:33:54.256Z,7.67
2023-01-01T11:36:34.653Z,7.67
2023-01-01T11:39:26.939Z,7.64
2023-01-01T11:41:57.903Z,7.72
2023-01-01T11:44:44.527Z,7.63
2023-01-01T11:47:36.541Z,7.65
2023-01-01T11:50:27.491Z,7.65
2023-01-01T11:52:58.962Z,7.68
2023-01-01T11:55:45.714Z,7.64
2023-01-01T11:58:30.915Z,7.65
2023-01-01T12:01:44.984Z,7.68
2023-01-01T12:04:37.809Z,7.71
2023-01-01T12:07:10.070Z,7.79
2023-01-01T12:10:30.364Z,7.90
2023-01-01T12:13:18.548Z,7.85
2023-01-01T12:16:13.476Z,7.77
2023-01-01T12:19:13.075Z,7.85
2023-01-01T12:21:49.018Z,7.88
2023-01-01T12:24:20.229Z,7.80
2023-01-01T12:27:42.189Z,7.63
2023-01-01T12:30:25.272Z,7.60
2023-01-01T12:34:09.327Z,7.53
2023-01-01T12:37:13.267Z,7.47
2023-01-01T12:40:59.040Z,7.53
2023-01-01T12:43:49.902Z,7.48
2023-01-01T12:46:44.655Z,7.41
2023-01-01T12:50:10.560Z,7.48
2023-01-01T12:53:03.859Z,7.61
2023-01-01T12:56:23.696Z,7.64
2023-01-01T12:59:22.505Z,7.55
2023-01-01T13:01:56.576Z,7.56
2023-01-01T13:04:24.137Z,7.49
2023-01-01T13:07:03.410Z,7.58
2023-01-01T13:09:39.313Z,7.47
2023-01-01T13:12:17.341Z,7.44
2023-01-01T13:14:49.758Z,7.45
2023-01-01T13:17:29.334Z,7.38
2023-01-01T13:20:24.710Z,7.43
2023-01-01T13:22:52.132Z,7.41
2023-01-01T13:25:24.235Z,7.39
2023-01-01T13:27:57.535Z,7.45
2023-01-01T13:30:42.465Z,7.48
2023-01-01T13:33:34.578Z,7.39
2023-01-01T13:36:27.782Z,7.30
2023-01-01T13:38:57.927Z,7.36
2023-01-01T13:41:40.963Z,7.34
2023-01-01T13:44:08.090Z,7.41
2023-01-01T13:46:56.249Z,7.33
2023-01-01T13:50:05.969Z,7.36
2023-01-01T13:53:29.115Z,7.33
2023-01-01T13:56:11.242Z,7.33
2023-01-01T13:59:19.348Z,7.31
2023-01-01T14:02:25.143Z,7.39
2023-01-01T14:05:35.902Z,7.46
2023-01-01T14:08:06.250Z,7.47
2023-01-01T14:10:37.864Z,7.52
2023-01-01T14:13:10.570Z,7.45
2023-01-01T14:15:57.991Z,7.47
2023-01-01T14:18:44.824Z,7.44
2023-01-01T14:21:27.315Z,7.46
2023-01-01T14:24:08.746Z,7.46
2023-01-01T14:26:39.012Z,7.42
2023-01-01T14:29:10.016Z,7.45
2023-01-01T14:31:44.157Z,7.42
2023-01-01T14:34:30.934Z,7.44
2023-01-01T14:37:05.448Z,7.40
2023-01-01T14:39:35.651Z,7.36
2023-01-01T14:42:16.928Z,7.35
2023-01-01T14:44:50.744Z,7.35
2023-01-01T14:47:29.404Z,7.35
2023-01-01T14:50:09.564Z,7.34
2023-01-01T14:52:37.000Z,7.34
2023-01-01T14:55:06.280Z,7.33
2023-01-01T14:57:37.372Z,7.36
2023-01-01T15:00:26.385Z,7.32
2023-01-01T15:02:53.873Z,7.32
2023-01-01T15:05:35.323Z,7.35
2023-01-01T15:08:08.904Z,7.37
2023-01-01T15:10:38.569Z,7.37
2023-01-01T15:13:07.714Z,7.40
2023-01-01T15:15:45.421Z,7.38
2023-01-01T15:18:44.031Z,7.39
2023-01-01T15:21:47.041Z,7.39
2023-01-01T15:24:23.736Z,7.37
2023-01-01T15:27:03.607Z,7.35
2023-01-01T15:29:44.837Z,7.32
2023-01-01T15:32:16.871Z,7.31
2023-01-01T15:34:54.892Z,7.32
2023-01-01T15:37:46.147Z,7.31
2023-01-01T15:40:13.304Z,7.31
2023-01-01T15:42:48.860Z,7.33
2023-01-01T15:45:42.183Z,7.33
2023-01-01T15:48:21.674Z,7.29
2023-01-01T15:50:48.660Z,7.26
2023-01-01T15:53:23.094Z,7.24
2023-01-01T15:56:13.140Z,7.23
2023-01-01T15:59:21.416Z,7.24
2023-01-01T16:01:48.806Z,7.23
2023-01-01T16:04:28.662Z,7.24
2023-01-01T16:06:58.799Z,7.24
2023-01-01T16:09:26.508Z,7.23
2023-01-01T16:11:57.355Z,7.21
2023-01-01T16:14:24.880Z,7.23
2023-01-01T16:17:00.503Z,7.23
2023-01-01T16:19:31.459Z,7.20
2023-01-01T16:21:59.032Z,7.23
2023-01-01T16:24:26.274Z,7.20
2023-01-01T16:26:53.480Z,7.21
2023-01-01T16:29:20.686Z,7.21
2023-01-01T16:31:48.452Z,7.23
2023-01-01T16:34:16.242Z,7.22
2023-01-01T16:36:44.720Z,7.22
2023-01-01T16:39:12.466Z,7.22
2023-01-01T16:41:42.803Z,7.24
2023-01-01T16:44:14.588Z,7.24
2023-01-01T16:46:42.644Z,7.23
2023-01-01T16:49:09.936Z,7.23
2023-01-01T16:51:42.115Z,7.23
2023-01-01T16:54:10.955Z,7.23
2023-01-01T16:56:38.372Z,7.26
2023-01-01T16:59:05.694Z,7.23
2023-01-01T17:01:33.369Z,7.26
2023-01-01T17:04:01.236Z,7.25
2023-01-01T17:06:28.499Z,7.22
2023-01-01T17:08:55.682Z,7.24
2023-01-01T17:11:24.819Z,7.26
2023-01-01T17:13:52.616Z,7.25
2023-01-01T17:16:26.964Z,7.27
2023-01-01T17:21:46.201Z,7.28
2023-01-01T17:24:19.004Z,7.26
2023-01-01T17:26:51.638Z,7.27
2023-01-01T17:29:21.979Z,7.26
2023-01-01T17:31:49.240Z,7.25
2023-01-01T17:34:16.552Z,7.29
2023-01-01T17:36:45.528Z,7.26
2023-01-01T17:39:16.064Z,7.27
2023-01-01T17:41:44.823Z,7.27
2023-01-01T17:44:12.353Z,7.29
2023-01-01T17:46:39.956Z,7.28
2023-01-01T17:49:08.866Z,7.28
2023-01-01T17:51:36.050Z,7.28
2023-01-01T17:54:04.713Z,7.28
2023-01-01T17:56:32.477Z,7.28
2023-01-01T17:58:59.807Z,7.29
2023-01-01T18:01:35.499Z,7.28
2023-01-01T18:04:07.685Z,7.28
2023-01-01T18:06:43.076Z,7.28
2023-01-01T18:09:16.720Z,7.28
2023-01-01T18:11:44.748Z,7.30
2023-01-01T18:14:17.318Z,7.30
2023-01-01T18:16:48.595Z,7.30
2023-01-01T18:19:21.988Z,7.30
2023-01-01T18:22:03.643Z,7.32
2023-01-01T18:24:36.362Z,7.32
2023-01-01T18:27:18.667Z,7.32
2023-01-01T18:29:47.274Z,7.32
2023-01-01T18:32:18.640Z,7.32
2023-01-01T18:34:53.541Z,7.33
2023-01-01T18:37:23.508Z,7.31
2023-01-01T18:40:01.256Z,7.32
2023-01-01T18:42:59.046Z,7.32
2023-01-01T18:45:26.788Z,7.34
2023-01-01T18:47:54.968Z,7.36
2023-01-01T18:50:55.411Z,7.37
2023-01-01T18:53:38.671Z,7.38
2023-01-01T18:56:15.915Z,7.38
2023-01-01T18:58:46.770Z,7.38
2023-01-01T19:01:36.752Z,7.38
2023-01-01T19:04:21.218Z,7.39
2023-01-01T19:06:50.872Z,7.34
2023-01-01T19:09:26.855Z,7.34
2023-01-01T19:12:07.384Z,7.38
2023-01-01T19:14:42.946Z,7.37
2023-01-01T19:17:27.010Z,7.36
2023-01-01T19:19:54.720Z,7.34
2023-01-01T19:22:32.730Z,7.35
2023-01-01T19:25:41.182Z,7.34
2023-01-01T19:29:06.068Z,7.35
2023-01-01T19:31:31.810Z,7.36
2023-01-01T19:34:05.836Z,7.33
2023-01-01T19:36:33.654Z,7.34
2023-01-01T19:39:20.003Z,7.35
2023-01-01T19:41:47.757Z,7.37
2023-01-01T19:44:22.992Z,7.36
2023-01-01T19:47:00.804Z,7.36
2023-01-01T19:49:32.156Z,7.36
2023-01-01T19:52:00.688Z,7.39
2023-01-01T19:54:35.944Z,7.37
2023-01-01T19:57:16.599Z,7.40
2023-01-01T20:00:19.332Z,7.40
2023-01-01T20:02:47.324Z,7.40
2023-01-01T20:05:21.013Z,7.41
2023-01-01T20:08:25.534Z,7.42
2023-01-01T20:11:12.686Z,7.43
2023-01-01T20:13:55.264Z,7.42
2023-01-01T20:16:53.689Z,7.45
2023-01-01T20:19:27.322Z,7.41
2023-01-01T20:22:22.586Z,7.41
2023-01-01T20:24:54.101Z,7.39
2023-01-01T20:31:49.306Z,7.38
2023-01-01T20:34:25.906Z,7.42
2023-01-01T20:37:18.809Z,7.42
2023-01-01T20:40:28.891Z,7.44
2023-01-01T20:42:56.329Z,7.43
2023-01-01T20:45:23.580Z,7.44
2023-01-01T20:47:50.863Z,7.45
2023-01-01T20:50:18.187Z,7.44
2023-01-01T20:52:45.352Z,7.45
2023-01-01T20:55:12.552Z,7.43
2023-01-01T20:57:40.005Z,7.43
2023-01-01T21:00:09.785Z,7.41
2023-01-01T21:02:37.110Z,7.41
2023-01-01T21:05:06.446Z,7.41
2023-01-01T21:07:33.587Z,7.40
2023-01-01T21:10:00.784Z,7.40
2023-01-01T21:12:27.920Z,7.40
2023-01-01T21:14:56.688Z,7.41
2023-01-01T21:17:26.812Z,7.41
2023-01-01T21:19:58.268Z,7.42
2023-01-01T21:22:27.547Z,7.40
2023-01-01T21:25:16.833Z,7.38
2023-01-01T21:27:44.526Z,7.38
2023-01-01T21:30:13.337Z,7.37
2023-01-01T21:32:44.874Z,7.38
2023-01-01T21:35:34.651Z,7.39
2023-01-01T21:38:17.237Z,7.39
2023-01-01T21:40:56.153Z,7.38
2023-01-01T21:43:36.792Z,7.41
2023-01-01T21:46:07.123Z,7.37
2023-01-01T21:48:48.271Z,7.35
2023-01-01T21:51:42.272Z,7.37
2023-01-01T21:54:09.417Z,7.40
2023-01-01T21:56:40.099Z,7.41
2023-01-01T21:59:42.628Z,7.39
2023-01-01T22:02:09.770Z,7.39
2023-01-01T22:04:38.403Z,7.40
2023-01-01T22:10:36.951Z,7.40
2023-01-01T22:13:17.515Z,7.40
2023-01-01T22:15:45.854Z,7.41
2023-01-01T22:18:22.135Z,7.42
2023-01-01T22:20:50.344Z,7.42
2023-01-01T22:23:24.523Z,7.41
2023-01-01T22:25:53.140Z,7.41
2023-01-01T22:28:26.217Z,7.41
2023-01-01T22:31:00.955Z,7.40
2023-01-01T22:33:43.134Z,7.41
2023-01-01T22:36:20.321Z,7.42
2023-01-01T22:38:48.525Z,7.45
2023-01-01T22:41:15.754Z,7.42
2023-01-01T22:43:45.616Z,7.42
2023-01-01T22:46:36.479Z,7.44
2023-01-01T22:49:24.474Z,7.43
2023-01-01T22:51:57.116Z,7.44
2023-01-01T22:54:24.606Z,7.46
2023-01-01T22:56:51.820Z,7.46
2023-01-01T22:59:19.023Z,7.41
2023-01-01T23:01:46.345Z,7.39
2023-01-01T23:04:13.705Z,7.38
2023-01-01T23:06:40.957Z,7.38
2023-01-01T23:09:08.490Z,7.40
2023-01-01T23:11:35.731Z,7.40
2023-01-01T23:14:21.649Z,7.35
2023-01-01T23:16:49.660Z,7.35
2023-01-01T23:19:16.909Z,7.36
2023-01-01T23:21:45.175Z,7.39
2023-01-01T23:24:19.002Z,7.38
2023-01-01T23:26:48.239Z,7.38
2023-01-01T23:29:17.340Z,7.39
2023-01-01T23:31:45.229Z,7.37
2023-01-01T23:34:12.887Z,7.42
2023-01-01T23:36:42.276Z,7.48
2023-01-01T23:39:09.721Z,7.48
2023-01-01T23:41:36.973Z,7.41
2023-01-01T23:44:04.470Z,7.43
2023-01-01T23:46:35.277Z,7.39
2023-01-01T23:49:04.557Z,7.39
2023-01-01T23:51:32.868Z,7.41
2023-01-01T23:54:00.092Z,7.43
2023-01-01T23:56:27.323Z,7.41
2023-01-01T23:58:54.577Z,7.38
